createdAt,value
2019-05-10T00:00:26.935Z,14.00
2019-05-10T00:03:11.748Z,14.00
2019-05-10T00:05:56.437Z,13.80
2019-05-10T00:08:41.213Z,13.60
2019-05-10T00:11:25.963Z,13.50
2019-05-10T00:13:54.436Z,13.60
2019-05-10T00:16:21.180Z,13.80
2019-05-10T00:18:47.417Z,13.90
2019-05-10T00:21:13.694Z,14.00
2019-05-10T00:23:39.954Z,14.10
2019-05-10T00:26:06.312Z,14.10
2019-05-10T00:28:32.648Z,14.10
2019-05-10T00:30:59.055Z,14.10
2019-05-10T00:33:25.244Z,14.20
2019-05-10T00:35:51.537Z,14.20
2019-05-10T00:38:20.082Z,14.00
2019-05-10T00:40:46.363Z,14.00
2019-05-10T00:43:14.988Z,13.90
2019-05-10T00:45:41.431Z,13.90
2019-05-10T00:48:07.727Z,14.00
2019-05-10T00:50:33.999Z,13.90
2019-05-10T00:53:00.318Z,13.90
2019-05-10T00:55:26.594Z,13.90
2019-05-10T00:57:52.832Z,13.90
2019-05-10T01:00:19.806Z,13.90
2019-05-10T01:02:46.051Z,13.80
2019-05-10T01:05:12.401Z,13.70
2019-05-10T01:07:38.681Z,13.50
2019-05-10T01:10:05.777Z,13.40
2019-05-10T01:12:32.025Z,13.30
2019-05-10T01:14:58.316Z,13.00
2019-05-10T01:17:24.653Z,12.80
2019-05-10T01:19:50.891Z,12.80
2019-05-10T01:22:17.252Z,12.80
2019-05-10T01:24:43.447Z,13.00
2019-05-10T01:27:09.830Z,13.10
2019-05-10T01:29:36.186Z,13.10
2019-05-10T01:32:02.667Z,13.10
2019-05-10T01:34:28.930Z,13.20
2019-05-10T01:36:55.195Z,13.30
2019-05-10T01:39:21.486Z,13.20
2019-05-10T01:41:47.742Z,13.20
2019-05-10T01:44:13.985Z,13.20
2019-05-10T01:46:42.171Z,13.10
2019-05-10T01:49:08.413Z,13.00
2019-05-10T01:51:34.769Z,13.10
2019-05-10T01:54:01.075Z,13.20
2019-05-10T01:56:27.375Z,13.20
2019-05-10T01:58:55.574Z,13.20
2019-05-10T02:01:21.940Z,13.10
2019-05-10T02:03:48.257Z,13.00
2019-05-10T02:06:14.689Z,12.90
2019-05-10T02:08:42.174Z,12.80
2019-05-10T02:11:11.243Z,12.70
2019-05-10T02:13:37.503Z,12.70
2019-05-10T02:16:03.868Z,12.70
2019-05-10T02:18:32.610Z,12.60
2019-05-10T02:20:59.563Z,12.60
2019-05-10T02:23:26.310Z,12.70
2019-05-10T02:26:08.390Z,12.70
2019-05-10T02:28:20.620Z,12.80
2019-05-10T02:30:47.168Z,12.90
2019-05-10T02:33:13.530Z,12.90
2019-05-10T02:35:39.733Z,12.90
2019-05-10T02:38:05.992Z,12.80
2019-05-10T02:40:32.409Z,12.80
2019-05-10T02:43:00.759Z,12.80
2019-05-10T02:45:27.321Z,12.90
2019-05-10T02:47:53.557Z,12.90
2019-05-10T02:50:20.020Z,12.90
2019-05-10T02:52:46.391Z,12.90
2019-05-10T02:55:13.026Z,12.90
2019-05-10T02:57:39.767Z,12.80
2019-05-10T03:00:07.770Z,12.70
2019-05-10T03:02:35.202Z,12.70
2019-05-10T03:05:03.598Z,12.70
2019-05-10T03:07:33.689Z,12.70
2019-05-10T03:10:02.231Z,12.70
2019-05-10T03:12:28.680Z,12.80
2019-05-10T03:14:56.685Z,12.80
2019-05-10T03:17:23.957Z,12.80
2019-05-10T03:19:51.682Z,12.80
2019-05-10T03:22:19.634Z,12.80
2019-05-10T03:24:46.023Z,12.80
2019-05-10T03:27:12.358Z,12.80
2019-05-10T03:29:38.764Z,12.80
2019-05-10T03:32:05.099Z,12.70
2019-05-10T03:34:31.341Z,12.70
2019-05-10T03:36:57.700Z,12.70
2019-05-10T03:39:24.707Z,12.50
2019-05-10T03:41:52.986Z,12.50
2019-05-10T03:44:19.342Z,12.60
2019-05-10T03:46:45.578Z,12.60
2019-05-10T03:49:11.879Z,12.60
2019-05-10T03:51:38.140Z,12.60
2019-05-10T03:54:04.431Z,12.70
2019-05-10T03:56:30.792Z,12.70
2019-05-10T03:58:57.058Z,12.70
2019-05-10T04:01:23.358Z,12.70
2019-05-10T04:03:49.719Z,12.70
2019-05-10T04:06:17.929Z,12.70
2019-05-10T04:08:44.365Z,12.70
2019-05-10T04:11:10.605Z,12.70
2019-05-10T04:13:36.882Z,12.60
2019-05-10T04:16:03.234Z,12.70
2019-05-10T04:18:29.488Z,12.60
2019-05-10T04:20:55.762Z,12.70
2019-05-10T04:23:22.143Z,12.70
2019-05-10T04:25:48.415Z,12.70
2019-05-10T04:28:14.666Z,12.60
2019-05-10T04:30:40.973Z,12.50
2019-05-10T04:33:07.249Z,12.50
2019-05-10T04:35:33.480Z,12.60
2019-05-10T04:38:04.125Z,12.30
2019-05-10T04:40:27.765Z,12.10
2019-05-10T04:42:54.094Z,11.90
2019-05-10T04:45:20.508Z,12.00
2019-05-10T04:47:46.775Z,12.00
2019-05-10T04:50:13.187Z,12.10
2019-05-10T04:52:39.439Z,12.20
2019-05-10T04:55:05.698Z,12.00
2019-05-10T04:57:47.980Z,12.10
2019-05-10T05:00:00.199Z,12.10
2019-05-10T05:02:26.457Z,12.20
2019-05-10T05:04:54.605Z,12.20
2019-05-10T05:07:23.888Z,12.20
2019-05-10T05:09:50.238Z,12.30
2019-05-10T05:12:16.530Z,12.50
2019-05-10T05:14:42.795Z,12.40
2019-05-10T05:17:09.040Z,12.10
2019-05-10T05:19:35.322Z,11.90
2019-05-10T05:22:01.906Z,11.80
2019-05-10T05:24:28.246Z,11.70
2019-05-10T05:26:54.526Z,11.60
2019-05-10T05:29:20.787Z,11.50
2019-05-10T05:31:47.196Z,11.50
2019-05-10T05:34:13.597Z,11.50
2019-05-10T05:36:40.042Z,11.40
2019-05-10T05:39:06.880Z,11.50
2019-05-10T05:41:47.962Z,11.40
2019-05-10T05:44:01.330Z,11.30
2019-05-10T05:46:27.714Z,11.40
2019-05-10T05:48:53.966Z,11.40
2019-05-10T05:51:20.327Z,11.50
2019-05-10T05:53:49.543Z,11.40
2019-05-10T05:56:15.801Z,11.40
2019-05-10T05:58:44.393Z,11.40
2019-05-10T06:01:10.509Z,11.40
2019-05-10T06:03:36.754Z,11.40
2019-05-10T06:06:15.494Z,11.40
2019-05-10T06:08:31.309Z,11.40
2019-05-10T06:11:00.056Z,11.50
2019-05-10T06:13:30.328Z,11.60
2019-05-10T06:15:53.941Z,11.70
2019-05-10T06:18:20.193Z,11.70
2019-05-10T06:20:49.671Z,11.80
2019-05-10T06:23:15.980Z,11.80
2019-05-10T06:25:43.008Z,12.00
2019-05-10T06:28:25.865Z,12.10
2019-05-10T06:30:37.725Z,11.90
2019-05-10T06:33:12.759Z,11.90
2019-05-10T06:35:32.121Z,11.80
2019-05-10T06:37:58.537Z,11.90
2019-05-10T06:40:37.620Z,12.10
2019-05-10T06:42:52.921Z,12.10
2019-05-10T06:45:19.444Z,12.10
2019-05-10T06:47:47.890Z,12.10
2019-05-10T06:50:14.448Z,12.20
2019-05-10T06:52:40.836Z,12.10
2019-05-10T06:55:07.635Z,12.30
2019-05-10T06:57:33.985Z,12.40
2019-05-10T07:00:06.240Z,12.50
2019-05-10T07:02:32.405Z,12.40
2019-05-10T07:04:56.962Z,12.40
2019-05-10T07:07:42.417Z,12.20
2019-05-10T07:10:15.789Z,12.20
2019-05-10T07:12:19.416Z,12.10
2019-05-10T07:14:46.702Z,12.20
2019-05-10T07:17:13.342Z,12.00
2019-05-10T07:19:42.121Z,12.00
2019-05-10T07:22:08.210Z,12.00
2019-05-10T07:24:34.424Z,12.00
2019-05-10T07:27:02.450Z,11.90
2019-05-10T07:29:30.316Z,11.80
2019-05-10T07:31:56.891Z,11.70
2019-05-10T07:34:23.134Z,11.50
2019-05-10T07:36:49.455Z,11.50
2019-05-10T07:39:15.786Z,11.50
2019-05-10T07:41:42.222Z,11.60
2019-05-10T07:44:10.557Z,11.60
2019-05-10T07:46:39.879Z,11.60
2019-05-10T07:49:04.937Z,11.60
2019-05-10T07:51:31.301Z,11.50
2019-05-10T07:54:04.522Z,11.60
2019-05-10T07:56:25.657Z,11.60
2019-05-10T07:58:52.084Z,11.50
2019-05-10T08:01:29.383Z,11.50
2019-05-10T08:03:52.142Z,11.70
2019-05-10T08:06:15.506Z,11.80
2019-05-10T08:08:42.140Z,11.80
2019-05-10T08:11:08.743Z,12.00
2019-05-10T08:13:35.310Z,11.80
2019-05-10T08:16:05.416Z,11.60
2019-05-10T08:18:29.968Z,11.70
2019-05-10T08:21:02.012Z,11.80
2019-05-10T08:23:27.875Z,11.80
2019-05-10T08:25:53.453Z,11.80
2019-05-10T08:28:22.661Z,11.80
2019-05-10T08:30:57.334Z,11.80
2019-05-10T08:33:16.169Z,11.90
2019-05-10T08:35:45.556Z,11.80
2019-05-10T08:38:12.688Z,11.90
2019-05-10T08:40:38.859Z,12.10
2019-05-10T08:43:08.919Z,11.90
2019-05-10T08:45:33.355Z,11.90
2019-05-10T08:48:02.121Z,11.90
2019-05-10T08:50:44.043Z,11.90
2019-05-10T08:52:56.980Z,12.00
2019-05-10T08:55:23.445Z,12.10
2019-05-10T08:57:49.699Z,12.10
2019-05-10T09:00:16.184Z,12.10
2019-05-10T09:02:42.927Z,12.20
2019-05-10T09:05:12.258Z,12.10
2019-05-10T09:07:39.095Z,12.00
2019-05-10T09:10:09.709Z,12.10
2019-05-10T09:12:41.722Z,12.10
2019-05-10T09:15:10.313Z,11.80
2019-05-10T09:17:35.654Z,11.70
2019-05-10T09:20:02.798Z,11.60
2019-05-10T09:22:33.916Z,11.50
2019-05-10T09:24:57.503Z,11.30
2019-05-10T09:27:29.061Z,11.40
2019-05-10T09:29:53.031Z,11.40
2019-05-10T09:32:21.471Z,11.20
2019-05-10T09:34:47.515Z,11.30
2019-05-10T09:37:17.571Z,11.30
2019-05-10T09:39:42.525Z,11.40
2019-05-10T09:42:16.378Z,11.60
2019-05-10T09:44:36.973Z,11.50
2019-05-10T09:47:04.030Z,11.40
2019-05-10T09:49:33.078Z,11.30
2019-05-10T09:51:58.790Z,11.20
2019-05-10T09:54:29.386Z,11.20
2019-05-10T09:56:57.359Z,11.20
2019-05-10T09:59:23.188Z,11.30
2019-05-10T10:01:49.567Z,11.30
2019-05-10T10:04:17.841Z,11.30
2019-05-10T10:06:48.188Z,11.20
2019-05-10T10:09:14.133Z,11.20
2019-05-10T10:11:40.716Z,11.30
2019-05-10T10:14:07.627Z,11.20
2019-05-10T10:16:35.282Z,11.20
2019-05-10T10:19:01.620Z,11.00
2019-05-10T10:21:35.102Z,11.20
2019-05-10T10:24:00.031Z,11.30
2019-05-10T10:26:24.146Z,11.30
2019-05-10T10:28:55.114Z,11.50
2019-05-10T10:31:28.860Z,11.40
2019-05-10T10:33:54.582Z,11.50
2019-05-10T10:36:15.942Z,11.40
2019-05-10T10:38:45.395Z,11.40
2019-05-10T10:41:10.277Z,11.50
2019-05-10T10:43:37.239Z,11.50
2019-05-10T10:46:04.475Z,11.50
2019-05-10T10:48:30.712Z,11.50
2019-05-10T10:50:58.722Z,11.40
2019-05-10T10:53:25.280Z,11.00
2019-05-10T10:55:54.632Z,11.00
2019-05-10T10:58:19.614Z,10.90
2019-05-10T11:00:48.162Z,11.00
2019-05-10T11:03:13.997Z,11.00
2019-05-10T11:05:40.368Z,11.00
2019-05-10T11:08:06.653Z,11.00
2019-05-10T11:10:33.016Z,10.90
2019-05-10T11:13:02.908Z,10.90
2019-05-10T11:15:32.986Z,11.20
2019-05-10T11:17:56.342Z,11.20
2019-05-10T11:20:22.743Z,11.30
2019-05-10T11:22:53.131Z,11.30
2019-05-10T11:25:17.030Z,11.00
2019-05-10T11:27:47.558Z,10.90
2019-05-10T11:30:12.388Z,10.90
2019-05-10T11:32:38.660Z,11.10
2019-05-10T11:35:05.660Z,11.10
2019-05-10T11:37:36.154Z,11.20
2019-05-10T11:40:01.758Z,11.30
2019-05-10T11:42:30.390Z,11.30
2019-05-10T11:44:56.302Z,11.40
2019-05-10T11:47:26.699Z,11.40
2019-05-10T11:49:51.020Z,11.40
2019-05-10T11:52:17.508Z,11.40
2019-05-10T11:54:43.804Z,11.30
2019-05-10T11:57:13.619Z,11.30
2019-05-10T11:59:41.380Z,11.20
2019-05-10T12:02:10.327Z,11.10
2019-05-10T12:04:39.257Z,10.90
2019-05-10T12:07:08.327Z,11.10
2019-05-10T12:09:31.774Z,11.00
2019-05-10T12:11:58.218Z,11.00
2019-05-10T12:14:24.491Z,11.10
2019-05-10T12:16:54.488Z,11.10
2019-05-10T12:19:21.171Z,11.00
2019-05-10T12:21:46.898Z,10.90
2019-05-10T12:24:31.189Z,11.00
2019-05-10T12:27:14.048Z,11.10
2019-05-10T12:29:13.783Z,11.10
2019-05-10T12:31:37.914Z,11.10
2019-05-10T12:34:08.867Z,11.30
2019-05-10T12:36:32.437Z,11.40
2019-05-10T12:38:59.493Z,11.50
2019-05-10T12:41:27.094Z,11.50
2019-05-10T12:44:02.550Z,11.50
2019-05-10T12:46:21.539Z,11.50
2019-05-10T12:48:47.834Z,11.70
2019-05-10T12:51:16.351Z,11.60
2019-05-10T12:53:47.615Z,11.60
2019-05-10T12:56:12.472Z,11.50
2019-05-10T12:58:38.899Z,11.70
2019-05-10T13:01:05.379Z,11.60
2019-05-10T13:03:33.726Z,11.60
2019-05-10T13:06:00.449Z,11.60
2019-05-10T13:08:26.806Z,11.60
2019-05-10T13:10:53.095Z,11.50
2019-05-10T13:13:26.990Z,11.50
2019-05-10T13:15:50.719Z,11.40
2019-05-10T13:18:17.026Z,11.50
2019-05-10T13:20:43.534Z,11.60
2019-05-10T13:23:15.547Z,11.60
2019-05-10T13:25:37.891Z,11.70
2019-05-10T13:28:10.462Z,11.70
2019-05-10T13:30:32.538Z,11.70
2019-05-10T13:33:00.315Z,11.70
2019-05-10T13:35:26.925Z,11.70
2019-05-10T13:37:56.790Z,11.80
2019-05-10T13:40:21.324Z,11.90
2019-05-10T13:42:47.576Z,11.90
2019-05-10T13:45:14.277Z,11.90
2019-05-10T13:47:40.627Z,11.90
2019-05-10T13:50:07.382Z,12.00
2019-05-10T13:52:38.065Z,12.00
2019-05-10T13:55:03.891Z,11.90
2019-05-10T13:57:30.287Z,12.00
2019-05-10T13:59:57.402Z,12.10
2019-05-10T14:02:32.536Z,12.00
2019-05-10T14:04:52.017Z,12.00
2019-05-10T14:07:18.475Z,11.90
2019-05-10T14:09:44.729Z,12.10
2019-05-10T14:12:16.129Z,12.10
2019-05-10T14:14:39.282Z,12.00
2019-05-10T14:17:05.755Z,12.00
2019-05-10T14:19:35.670Z,12.10
2019-05-10T14:22:00.429Z,12.30
2019-05-10T14:24:26.722Z,12.40
2019-05-10T14:26:57.100Z,12.30
2019-05-10T14:29:32.932Z,12.30
2019-05-10T14:31:52.356Z,12.10
2019-05-10T14:34:18.579Z,12.10
2019-05-10T14:36:44.857Z,12.30
2019-05-10T14:39:11.251Z,12.20
2019-05-10T14:41:45.186Z,12.40
2019-05-10T14:44:08.615Z,12.30
2019-05-10T14:46:34.880Z,12.20
2019-05-10T14:49:08.747Z,12.20
2019-05-10T14:51:43.969Z,12.20
2019-05-10T14:53:58.264Z,12.50
2019-05-10T14:56:25.807Z,12.60
2019-05-10T14:58:52.256Z,12.80
2019-05-10T15:01:18.755Z,12.90
2019-05-10T15:03:47.244Z,12.90
2019-05-10T15:06:13.413Z,12.60
2019-05-10T15:08:39.779Z,12.60
2019-05-10T15:11:06.134Z,12.60
2019-05-10T15:13:34.928Z,12.70
2019-05-10T15:16:00.739Z,12.70
2019-05-10T15:18:27.073Z,12.70
2019-05-10T15:20:53.332Z,12.60
2019-05-10T15:23:19.651Z,12.80
2019-05-10T15:25:56.330Z,12.80
2019-05-10T15:28:14.075Z,12.80
2019-05-10T15:30:45.955Z,12.90
2019-05-10T15:33:08.666Z,13.30
2019-05-10T15:35:35.055Z,13.60
2019-05-10T15:38:01.317Z,13.30
2019-05-10T15:40:27.763Z,13.50
2019-05-10T15:42:53.956Z,13.60
2019-05-10T15:45:20.768Z,13.30
2019-05-10T15:47:51.359Z,13.10
2019-05-10T15:50:15.584Z,12.80
2019-05-10T15:52:46.620Z,13.10
2019-05-10T15:55:11.441Z,13.20
2019-05-10T15:57:37.804Z,13.20
2019-05-10T16:00:04.825Z,13.10
2019-05-10T16:02:31.108Z,13.00
2019-05-10T16:04:57.346Z,13.00
2019-05-10T16:07:23.696Z,12.90
2019-05-10T16:09:54.774Z,12.70
2019-05-10T16:12:20.083Z,12.80
2019-05-10T16:14:46.472Z,12.80
2019-05-10T16:17:17.683Z,12.70
2019-05-10T16:19:41.033Z,12.80
2019-05-10T16:22:07.626Z,12.80
2019-05-10T16:24:33.904Z,12.70
2019-05-10T16:27:01.837Z,12.60
2019-05-10T16:29:28.457Z,12.60
2019-05-10T16:31:54.754Z,12.50
2019-05-10T16:34:26.460Z,12.60
2019-05-10T16:36:52.141Z,12.70
2019-05-10T16:39:18.514Z,12.70
2019-05-10T16:41:44.789Z,12.70
2019-05-10T16:44:11.066Z,12.60
2019-05-10T16:46:37.356Z,12.60
2019-05-10T16:49:03.828Z,12.50
2019-05-10T16:51:30.218Z,12.40
2019-05-10T16:53:56.491Z,12.40
2019-05-10T16:56:23.076Z,12.50
2019-05-10T16:58:53.198Z,12.50
2019-05-10T17:01:18.796Z,12.50
2019-05-10T17:03:51.100Z,12.30
2019-05-10T17:06:14.345Z,12.30
2019-05-10T17:08:40.710Z,12.50
2019-05-10T17:11:10.105Z,12.40
2019-05-10T17:13:41.521Z,12.50
2019-05-10T17:16:05.935Z,12.50
2019-05-10T17:18:32.201Z,12.30
2019-05-10T17:20:58.564Z,12.20
2019-05-10T17:23:24.843Z,12.40
2019-05-10T17:25:51.255Z,12.30
2019-05-10T17:28:17.526Z,12.40
2019-05-10T17:30:44.882Z,12.20
2019-05-10T17:33:11.290Z,12.20
2019-05-10T17:35:42.229Z,12.20
2019-05-10T17:38:07.996Z,12.10
2019-05-10T17:40:33.672Z,11.90
2019-05-10T17:43:01.851Z,12.00
2019-05-10T17:45:28.119Z,11.90
2019-05-10T17:47:54.364Z,11.90
2019-05-10T17:50:20.772Z,11.90
2019-05-10T17:52:47.025Z,11.60
2019-05-10T17:55:16.775Z,11.50
2019-05-10T17:57:41.540Z,11.50
2019-05-10T18:00:08.501Z,11.70
2019-05-10T18:02:34.847Z,11.70
2019-05-10T18:05:06.452Z,11.60
2019-05-10T18:07:29.590Z,11.50
2019-05-10T18:10:04.088Z,11.50
2019-05-10T18:12:30.491Z,11.50
2019-05-10T18:14:57.680Z,11.40
2019-05-10T18:17:25.874Z,11.30
2019-05-10T18:19:56.683Z,11.40
2019-05-10T18:22:20.507Z,11.30
2019-05-10T18:24:46.777Z,11.30
2019-05-10T18:27:13.039Z,11.20
2019-05-10T18:29:39.454Z,11.10
2019-05-10T18:32:05.918Z,11.10
2019-05-10T18:34:35.490Z,11.20
2019-05-10T18:37:02.112Z,11.40
2019-05-10T18:39:28.460Z,11.40
2019-05-10T18:41:54.832Z,11.40
2019-05-10T18:44:21.085Z,11.30
2019-05-10T18:46:47.381Z,11.40
2019-05-10T18:49:13.635Z,11.30
2019-05-10T18:51:40.066Z,11.20
2019-05-10T18:54:06.624Z,11.10
2019-05-10T18:56:33.228Z,11.20
2019-05-10T18:59:06.554Z,11.30
2019-05-10T19:01:32.994Z,11.30
2019-05-10T19:03:56.213Z,11.20
2019-05-10T19:06:22.496Z,11.00
2019-05-10T19:08:48.914Z,10.90
2019-05-10T19:11:15.357Z,10.80
2019-05-10T19:13:47.855Z,10.90
2019-05-10T19:16:09.765Z,10.90
2019-05-10T19:18:38.053Z,11.00
2019-05-10T19:21:04.496Z,11.10
2019-05-10T19:23:30.855Z,10.90
2019-05-10T19:25:57.155Z,11.00
2019-05-10T19:28:26.732Z,11.00
2019-05-10T19:30:52.824Z,10.70
2019-05-10T19:33:19.688Z,10.70
2019-05-10T19:35:46.019Z,10.90
2019-05-10T19:38:12.301Z,10.90
2019-05-10T19:40:38.682Z,10.90
2019-05-10T19:43:05.033Z,10.80
2019-05-10T19:45:31.461Z,10.90
2019-05-10T19:47:57.663Z,10.80
2019-05-10T19:50:30.328Z,10.90
2019-05-10T19:52:52.194Z,10.80
2019-05-10T19:55:19.494Z,10.80
2019-05-10T19:57:49.538Z,10.90
2019-05-10T20:00:15.184Z,10.90
2019-05-10T20:02:41.417Z,10.80
2019-05-10T20:05:07.774Z,10.80
2019-05-10T20:07:45.337Z,10.80
2019-05-10T20:10:07.375Z,10.90
2019-05-10T20:12:32.053Z,10.90
2019-05-10T20:14:58.355Z,10.80
2019-05-10T20:17:24.732Z,10.80
2019-05-10T20:19:51.065Z,10.80
2019-05-10T20:22:17.459Z,10.70
2019-05-10T20:24:43.715Z,10.70
2019-05-10T20:27:10.192Z,10.70
2019-05-10T20:29:36.458Z,10.70
2019-05-10T20:32:02.937Z,10.50
2019-05-10T20:34:29.199Z,10.40
2019-05-10T20:36:55.579Z,10.40
2019-05-10T20:39:21.964Z,10.50
2019-05-10T20:41:48.418Z,10.60
2019-05-10T20:44:14.662Z,10.50
2019-05-10T20:46:41.165Z,10.50
2019-05-10T20:49:07.400Z,10.40
2019-05-10T20:51:33.707Z,10.30
2019-05-10T20:53:59.986Z,10.30
2019-05-10T20:56:26.235Z,10.30
2019-05-10T20:58:52.591Z,10.30
2019-05-10T21:01:18.979Z,10.30
2019-05-10T21:03:45.344Z,10.30
2019-05-10T21:06:11.625Z,10.30
2019-05-10T21:08:38.096Z,10.30
2019-05-10T21:11:04.439Z,10.30
2019-05-10T21:13:30.777Z,10.30
2019-05-10T21:15:57.162Z,10.30
2019-05-10T21:18:23.458Z,10.30
2019-05-10T21:20:49.691Z,10.30
2019-05-10T21:23:16.077Z,10.20
2019-05-10T21:25:42.431Z,10.20
2019-05-10T21:28:08.697Z,10.20
2019-05-10T21:30:35.035Z,10.10
2019-05-10T21:33:01.430Z,10.00
2019-05-10T21:35:27.676Z,9.90
2019-05-10T21:37:54.018Z,9.90
2019-05-10T21:40:20.405Z,9.90
2019-05-10T21:42:46.753Z,9.90
2019-05-10T21:45:12.998Z,10.00
2019-05-10T21:47:51.239Z,10.00
2019-05-10T21:50:07.539Z,9.90
2019-05-10T21:52:33.814Z,9.90
2019-05-10T21:55:00.057Z,9.90
2019-05-10T21:57:26.423Z,9.80
2019-05-10T21:59:52.714Z,9.80
2019-05-10T22:02:19.170Z,9.70
2019-05-10T22:04:48.022Z,9.60
2019-05-10T22:07:14.037Z,9.60
2019-05-10T22:09:43.137Z,9.60
2019-05-10T22:12:09.719Z,9.60
2019-05-10T22:14:36.003Z,9.50
2019-05-10T22:17:02.377Z,9.50
2019-05-10T22:19:28.678Z,9.50
2019-05-10T22:21:55.567Z,9.50
2019-05-10T22:24:21.962Z,9.40
2019-05-10T22:26:48.202Z,9.40
2019-05-10T22:29:14.593Z,9.20
2019-05-10T22:31:40.890Z,9.00
2019-05-10T22:34:07.145Z,8.90
2019-05-10T22:36:33.436Z,8.70
2019-05-10T22:39:07.021Z,8.80
2019-05-10T22:41:27.724Z,8.90
2019-05-10T22:43:55.910Z,9.10
2019-05-10T22:46:22.309Z,9.20
2019-05-10T22:48:48.570Z,9.30
2019-05-10T22:51:14.839Z,9.30
2019-05-10T22:53:43.880Z,9.40
2019-05-10T22:56:10.127Z,9.30
2019-05-10T22:58:36.369Z,9.10
2019-05-10T23:01:02.760Z,9.00
2019-05-10T23:03:28.944Z,9.00
2019-05-10T23:05:55.301Z,9.00
2019-05-10T23:08:21.697Z,9.10
2019-05-10T23:10:47.962Z,9.00
2019-05-10T23:13:14.230Z,9.10
2019-05-10T23:15:40.678Z,9.10
2019-05-10T23:18:06.976Z,9.10
2019-05-10T23:20:33.385Z,9.10
2019-05-10T23:22:59.586Z,9.20
2019-05-10T23:25:25.955Z,9.10
2019-05-10T23:27:52.178Z,8.90
2019-05-10T23:30:18.546Z,8.90
2019-05-10T23:32:44.784Z,8.80
2019-05-10T23:35:14.531Z,8.70
2019-05-10T23:37:40.866Z,8.50
2019-05-10T23:40:07.520Z,8.60
2019-05-10T23:42:34.189Z,8.70
2019-05-10T23:45:00.665Z,8.70
2019-05-10T23:47:26.932Z,8.60
2019-05-10T23:49:53.258Z,8.50
2019-05-10T23:52:19.623Z,8.50
2019-05-10T23:54:45.959Z,8.40
2019-05-10T23:57:12.223Z,8.40
2019-05-10T23:59:38.648Z,8.40
